GCGM/GMZ METAR and TAF weather

Enter ICAO airport designator
Station Type Date Time Source
GCGM METAR 2018/04/21 21:00 UTC NOAA

GCGM 212100Z AUTO 16003KT 080V230 9999 SCT047 17/13 Q1016 RMK R09/VRB03KT ARP/VRB02KT


Station Type Date Time Source
GCGM Decoded METAR 2018/04/21 21:00 UTC NOAA

Station name not available
Apr 21, 2018 - 05:00 PM EDT / 2018.04.21 2100 UTC
Wind: from the SSE (160 degrees) at 3 MPH (3 KT) (direction variable):0
Visibility: greater than 7 mile(s):0
Sky conditions: partly cloudy
Temperature: 62 F (17 C)
Dew Point: 55 F (13 C)
Relative Humidity: 77%
Pressure (altimeter): 30.00 in. Hg (1016 hPa)
ob: GCGM 212100Z AUTO 16003KT 080V230 9999 SCT047 17/13 Q1016 RMK R09/VRB03KT ARP/VRB02KT
cycle: 21

Station Type Date Time Source
GCGM TAF 2018/04/21 21:00 UTC NOAA

TAF GCGM 212000Z 2121/2221 VRB04KT 9999 SCT040 TX20/2214Z TN15/2206Z PROB40
TEMPO 2217/2221 36015G25KT


Example: see airport list